Time;durP1;ratioP1;P1;durP2;ratioP2;P2;SDS_P1;SDS_P2;PMS_P1;PMS_P2;Temp;Humidity;BMP_temperature;BMP_pressure;BME280_temperature;BME280_humidity;BME280_pressure;Samples;Min_cycle;Max_cycle;Signal;HPM_P1;HPM_P2
2023/04/23 00:02:21;;;;;;;6.65;3.50;;;;;;;;;;5018554;28;20050;-89
2023/04/23 00:04:51;;;;;;;4.13;3.72;;;;;;;;;;5018542;28;20091;-90
2023/04/23 00:07:20;;;;;;;6.60;4.13;;;;;;;;;;5035944;28;20046;-90
2023/04/23 00:09:48;;;;;;;6.35;4.00;;;;;;;;;;5018062;28;20490;-89
2023/04/23 00:12:16;;;;;;;4.05;3.40;;;;;;;;;;5018215;28;20484;-90
2023/04/23 00:14:43;;;;;;;5.47;4.40;;;;;;;;;;5017881;28;20049;-90
2023/04/23 00:17:11;;;;;;;7.05;4.43;;;;;;;;;;5018075;28;20049;-89
2023/04/23 00:19:38;;;;;;;5.72;4.45;;;;;;;;;;5017797;28;20053;-89
2023/04/23 00:22:05;;;;;;;4.80;4.30;;;;;;;;;;5035434;28;20489;-90
2023/04/23 00:24:35;;;;;;;3.83;3.53;;;;;;;;;;5017887;28;20489;-89
2023/04/23 00:27:02;;;;;;;5.82;3.90;;;;;;;;;;5017146;28;20474;-90
2023/04/23 00:29:29;;;;;;;4.13;3.53;;;;;;;;;;5017794;28;20061;-90
2023/04/23 00:31:56;;;;;;;4.47;3.28;;;;;;;;;;5017923;28;20052;-88
2023/04/23 00:34:23;;;;;;;4.95;3.10;;;;;;;;;;5035142;28;20465;-89
2023/04/23 00:36:50;;;;;;;5.55;3.58;;;;;;;;;;5017554;28;20042;-89
2023/04/23 00:39:18;;;;;;;5.00;3.13;;;;;;;;;;5017541;28;20063;-89
2023/04/23 00:41:45;;;;;;;3.17;2.88;;;;;;;;;;5017756;28;20045;-89
2023/04/23 00:44:13;;;;;;;6.10;3.70;;;;;;;;;;5034704;28;20065;-89
2023/04/23 00:46:41;;;;;;;5.63;3.53;;;;;;;;;;5017353;28;20494;-90
2023/04/23 00:49:08;;;;;;;5.28;3.10;;;;;;;;;;5017571;28;20050;-89
2023/04/23 00:51:36;;;;;;;5.07;3.50;;;;;;;;;;5017373;28;20478;-88
2023/04/23 00:54:03;;;;;;;7.30;3.55;;;;;;;;;;5017246;28;20054;-88
2023/04/23 00:56:30;;;;;;;6.03;3.10;;;;;;;;;;5017191;28;20140;-89
2023/04/23 00:58:57;;;;;;;3.42;3.13;;;;;;;;;;5017160;28;20056;-88
2023/04/23 01:01:25;;;;;;;6.30;4.05;;;;;;;;;;5017451;28;20463;-89
2023/04/23 01:03:52;;;;;;;8.38;3.70;;;;;;;;;;5016819;28;20526;-89
2023/04/23 01:06:20;;;;;;;4.72;3.05;;;;;;;;;;5034435;28;20080;-89
2023/04/23 01:08:47;;;;;;;4.50;3.28;;;;;;;;;;5034187;28;20084;-89
2023/04/23 01:11:15;;;;;;;3.67;2.90;;;;;;;;;;5016899;28;20052;-89
2023/04/23 01:13:43;;;;;;;3.15;2.75;;;;;;;;;;5033919;28;20057;-89
2023/04/23 01:16:10;;;;;;;4.43;3.30;;;;;;;;;;5034229;28;20120;-90
2023/04/23 01:18:39;;;;;;;3.83;3.40;;;;;;;;;;5016921;28;20045;-89
2023/04/23 01:21:08;;;;;;;3.22;2.92;;;;;;;;;;5016822;28;20046;-90
2023/04/23 01:23:35;;;;;;;2.83;2.72;;;;;;;;;;5016622;28;20046;-89
2023/04/23 01:26:03;;;;;;;4.32;3.22;;;;;;;;;;5034186;28;20132;-90
2023/04/23 01:28:30;;;;;;;4.13;2.92;;;;;;;;;;5034382;28;20475;-89
2023/04/23 01:30:58;;;;;;;6.13;2.97;;;;;;;;;;5033706;28;20060;-89
2023/04/23 01:33:25;;;;;;;3.17;2.97;;;;;;;;;;5033923;28;20441;-89
2023/04/23 01:35:54;;;;;;;6.63;3.10;;;;;;;;;;5016652;28;20056;-89
2023/04/23 01:38:24;;;;;;;12.55;3.35;;;;;;;;;;5016831;28;20053;-89
2023/04/23 01:40:52;;;;;;;3.47;2.80;;;;;;;;;;5033704;28;20052;-89
2023/04/23 01:43:19;;;;;;;3.15;2.83;;;;;;;;;;5033700;28;20057;-90
2023/04/23 01:45:47;;;;;;;3.92;3.10;;;;;;;;;;5033698;28;20049;-89
2023/04/23 01:48:14;;;;;;;6.70;3.20;;;;;;;;;;5016469;28;20046;-90
2023/04/23 01:50:42;;;;;;;7.50;3.50;;;;;;;;;;5016268;28;20051;-89
2023/04/23 01:53:09;;;;;;;4.03;2.80;;;;;;;;;;5016608;28;20060;-90
2023/04/23 01:55:38;;;;;;;3.80;2.90;;;;;;;;;;5016597;28;20517;-90
2023/04/23 01:58:06;;;;;;;4.93;3.20;;;;;;;;;;5033775;28;20056;-90
2023/04/23 02:00:33;;;;;;;4.88;2.85;;;;;;;;;;5032378;28;20057;-89
2023/04/23 02:03:00;;;;;;;3.22;2.83;;;;;;;;;;5016226;28;20397;-89
2023/04/23 02:05:28;;;;;;;4.75;2.85;;;;;;;;;;5016406;28;20056;-89
2023/04/23 02:07:56;;;;;;;4.00;2.70;;;;;;;;;;5033313;28;20100;-89
2023/04/23 02:10:24;;;;;;;2.88;2.67;;;;;;;;;;5016280;28;20051;-89
2023/04/23 02:12:52;;;;;;;7.22;3.10;;;;;;;;;;5033461;28;20053;-89
2023/04/23 02:15:20;;;;;;;4.38;2.88;;;;;;;;;;5016095;28;20049;-89
2023/04/23 02:17:49;;;;;;;4.20;2.90;;;;;;;;;;5033193;28;20092;-89
2023/04/23 02:20:17;;;;;;;2.60;2.40;;;;;;;;;;5015855;28;20081;-89
2023/04/23 02:22:45;;;;;;;4.85;2.80;;;;;;;;;;5033498;28;20417;-89
2023/04/23 02:25:14;;;;;;;2.97;2.78;;;;;;;;;;5015808;28;20508;-89
2023/04/23 02:27:41;;;;;;;5.13;3.22;;;;;;;;;;5015899;28;20075;-89
2023/04/23 02:30:10;;;;;;;4.72;2.70;;;;;;;;;;5015637;28;20057;-88
2023/04/23 02:32:37;;;;;;;2.80;2.50;;;;;;;;;;5033209;28;20052;-89
2023/04/23 02:35:05;;;;;;;3.47;2.30;;;;;;;;;;5033435;28;20056;-89
2023/04/23 02:37:32;;;;;;;5.75;2.67;;;;;;;;;;5016195;28;20076;-89
2023/04/23 02:40:00;;;;;;;2.83;2.70;;;;;;;;;;5015761;28;20056;-89
2023/04/23 02:42:27;;;;;;;2.83;2.60;;;;;;;;;;5033091;28;20091;-90
2023/04/23 02:44:55;;;;;;;3.13;2.92;;;;;;;;;;5015958;28;20427;-89
2023/04/23 02:47:22;;;;;;;2.70;2.50;;;;;;;;;;5015831;28;20050;-89
2023/04/23 02:49:49;;;;;;;3.20;2.78;;;;;;;;;;5018337;28;20107;-89
2023/04/23 02:52:17;;;;;;;7.90;3.05;;;;;;;;;;5036871;28;20409;-88
2023/04/23 02:54:44;;;;;;;3.97;3.08;;;;;;;;;;5036711;28;20526;-89
2023/04/23 02:57:14;;;;;;;3.28;2.75;;;;;;;;;;5036834;28;20051;-88
2023/04/23 02:59:41;;;;;;;3.88;3.03;;;;;;;;;;5019240;28;20046;-90
2023/04/23 03:02:08;;;;;;;2.55;2.42;;;;;;;;;;5019091;28;20049;-88
2023/04/23 03:04:36;;;;;;;3.70;2.72;;;;;;;;;;5018826;28;20049;-88
2023/04/23 03:07:03;;;;;;;3.13;2.70;;;;;;;;;;5019198;28;20148;-89
2023/04/23 03:09:30;;;;;;;5.15;2.60;;;;;;;;;;5019559;28;20081;-89
2023/04/23 03:11:57;;;;;;;6.57;3.35;;;;;;;;;;5019153;28;20055;-89
2023/04/23 03:14:25;;;;;;;9.07;2.88;;;;;;;;;;5019257;28;20050;-88
2023/04/23 03:16:52;;;;;;;3.50;2.67;;;;;;;;;;5036445;28;20049;-88
2023/04/23 03:19:19;;;;;;;4.28;2.40;;;;;;;;;;5036319;28;20099;-88
2023/04/23 03:21:46;;;;;;;3.08;2.67;;;;;;;;;;5036123;28;20056;-89
2023/04/23 03:24:16;;;;;;;4.72;2.42;;;;;;;;;;5036146;28;20129;-90
2023/04/23 03:26:43;;;;;;;5.85;2.42;;;;;;;;;;5018788;28;20053;-88
2023/04/23 03:29:10;;;;;;;2.75;2.55;;;;;;;;;;5018790;28;20049;-86
2023/04/23 03:31:38;;;;;;;3.05;2.50;;;;;;;;;;5018908;28;20057;-89
2023/04/23 03:34:05;;;;;;;3.45;2.10;;;;;;;;;;5036073;28;20413;-87
2023/04/23 03:36:32;;;;;;;2.30;2.10;;;;;;;;;;5018470;28;20050;-88
2023/04/23 03:39:01;;;;;;;2.38;2.10;;;;;;;;;;5035982;28;20528;-88
2023/04/23 03:41:28;;;;;;;7.97;2.40;;;;;;;;;;5018307;28;20056;-89
2023/04/23 03:43:55;;;;;;;5.93;2.08;;;;;;;;;;5018413;28;20068;-90
2023/04/23 03:46:22;;;;;;;5.03;2.17;;;;;;;;;;5035858;28;20046;-89
2023/04/23 03:48:49;;;;;;;6.85;2.50;;;;;;;;;;5035750;28;20045;-90
2023/04/23 03:51:17;;;;;;;2.55;1.73;;;;;;;;;;5035887;28;20156;-89
2023/04/23 03:53:45;;;;;;;3.70;1.95;;;;;;;;;;5018632;28;20145;-89
2023/04/23 03:56:12;;;;;;;5.07;2.20;;;;;;;;;;5018535;28;20053;-87
2023/04/23 03:58:39;;;;;;;3.00;2.28;;;;;;;;;;5018342;28;20063;-89
2023/04/23 04:01:06;;;;;;;1.83;1.70;;;;;;;;;;5017209;28;20057;-86
2023/04/23 04:03:33;;;;;;;2.22;1.67;;;;;;;;;;5035782;28;20060;-87
2023/04/23 04:06:01;;;;;;;2.28;1.80;;;;;;;;;;5035393;28;20128;-89
2023/04/23 04:08:28;;;;;;;2.63;1.42;;;;;;;;;;5018187;28;20089;-88
2023/04/23 04:10:55;;;;;;;2.78;1.90;;;;;;;;;;5035379;28;20050;-92
2023/04/23 04:13:23;;;;;;;2.92;1.92;;;;;;;;;;5017718;28;20053;-88
2023/04/23 04:15:50;;;;;;;2.53;1.73;;;;;;;;;;5017698;28;20059;-89
2023/04/23 04:18:17;;;;;;;3.60;1.70;;;;;;;;;;5035416;28;20095;-89
2023/04/23 04:20:44;;;;;;;2.13;1.67;;;;;;;;;;5035094;28;20131;-89
2023/04/23 04:23:12;;;;;;;2.00;1.60;;;;;;;;;;5035137;28;20045;-90
2023/04/23 04:25:39;;;;;;;1.42;1.33;;;;;;;;;;5017500;28;20049;-90
2023/04/23 04:28:08;;;;;;;1.08;1.08;;;;;;;;;;5034884;28;20052;-89
2023/04/23 04:30:35;;;;;;;2.08;1.25;;;;;;;;;;5017304;28;20061;-92
2023/04/23 04:33:02;;;;;;;1.48;1.30;;;;;;;;;;5034543;28;20414;-88
2023/04/23 04:35:30;;;;;;;1.23;1.05;;;;;;;;;;5017133;28;20057;-89
2023/04/23 04:37:57;;;;;;;0.90;0.90;;;;;;;;;;5034510;28;20058;-88
2023/04/23 04:40:25;;;;;;;3.33;0.88;;;;;;;;;;5017167;28;20053;-89
2023/04/23 04:42:53;;;;;;;1.70;0.80;;;;;;;;;;5017110;28;20072;-89
2023/04/23 04:45:22;;;;;;;2.55;1.20;;;;;;;;;;5034633;28;20042;-89
2023/04/23 04:47:49;;;;;;;1.95;1.20;;;;;;;;;;5017319;28;20072;-89
2023/04/23 04:50:16;;;;;;;6.10;1.00;;;;;;;;;;5017137;28;20056;-91
2023/04/23 04:52:43;;;;;;;1.00;0.80;;;;;;;;;;5034682;28;20057;-91
2023/04/23 04:55:11;;;;;;;1.80;0.65;;;;;;;;;;5017099;28;20132;-90
2023/04/23 04:57:38;;;;;;;1.40;0.70;;;;;;;;;;5034337;28;20438;-90
2023/04/23 05:00:22;;;;;;;1.20;1.10;;;;;;;;;;5034296;28;20061;-89
2023/04/23 05:02:51;;;;;;;0.70;0.65;;;;;;;;;;5016548;28;20056;-90
2023/04/23 05:05:19;;;;;;;0.70;0.63;;;;;;;;;;5034139;28;20049;-90
2023/04/23 05:07:47;;;;;;;1.00;0.70;;;;;;;;;;5017031;28;20060;-90
2023/04/23 05:10:14;;;;;;;0.70;0.70;;;;;;;;;;5016707;28;20053;-91
2023/04/23 05:12:42;;;;;;;0.75;0.65;;;;;;;;;;5007316;28;20073;-88
2023/04/23 05:15:12;;;;;;;1.65;0.90;;;;;;;;;;4997041;28;20056;-88
2023/04/23 05:17:40;;;;;;;0.60;0.60;;;;;;;;;;4997111;28;20050;-89
2023/04/23 05:20:10;;;;;;;1.98;0.73;;;;;;;;;;4997242;28;20053;-90
2023/04/23 05:22:38;;;;;;;0.80;0.80;;;;;;;;;;5014046;28;20084;-88
2023/04/23 05:25:06;;;;;;;0.70;0.70;;;;;;;;;;4996868;28;20050;-90
2023/04/23 05:27:33;;;;;;;0.80;0.80;;;;;;;;;;5013974;28;20053;-90
2023/04/23 05:30:04;;;;;;;2.00;0.88;;;;;;;;;;5013773;28;20050;-91
2023/04/23 05:32:32;;;;;;;2.60;1.25;;;;;;;;;;4996900;28;20053;-89
2023/04/23 05:34:59;;;;;;;2.78;1.00;;;;;;;;;;4996830;28;20053;-89
2023/04/23 05:37:26;;;;;;;3.88;1.33;;;;;;;;;;5013767;28;20391;-89
2023/04/23 05:39:54;;;;;;;0.90;0.90;;;;;;;;;;5013815;28;20552;-88
2023/04/23 05:42:21;;;;;;;2.63;1.02;;;;;;;;;;4996735;28;20406;-89
2023/04/23 05:44:48;;;;;;;0.80;0.80;;;;;;;;;;5014182;28;20073;-92
2023/04/23 05:47:16;;;;;;;1.10;1.10;;;;;;;;;;4996613;28;20057;-89
2023/04/23 05:49:43;;;;;;;1.08;1.05;;;;;;;;;;4996553;28;20049;-90
2023/04/23 05:52:10;;;;;;;1.00;0.80;;;;;;;;;;5013688;28;20488;-90
2023/04/23 05:54:38;;;;;;;3.60;1.10;;;;;;;;;;5014114;28;20108;-87
2023/04/23 05:57:06;;;;;;;0.77;0.77;;;;;;;;;;5013689;28;20077;-89
2023/04/23 05:59:33;;;;;;;0.88;0.80;;;;;;;;;;4996533;28;20546;-91
2023/04/23 06:02:01;;;;;;;2.22;0.90;;;;;;;;;;4996883;28;20046;-89
2023/04/23 06:04:28;;;;;;;1.05;1.05;;;;;;;;;;5013811;28;20050;-90
2023/04/23 06:06:56;;;;;;;1.00;1.00;;;;;;;;;;4996361;28;20082;-92
2023/04/23 06:09:23;;;;;;;1.13;1.02;;;;;;;;;;5013728;28;20046;-89
2023/04/23 06:11:51;;;;;;;1.25;1.13;;;;;;;;;;5013844;28;20446;-88
2023/04/23 06:14:18;;;;;;;1.77;0.85;;;;;;;;;;5013471;28;20490;-90
2023/04/23 06:16:46;;;;;;;1.10;1.00;;;;;;;;;;4996770;28;20057;-89
2023/04/23 06:19:13;;;;;;;1.52;0.90;;;;;;;;;;5013884;28;20132;-89
2023/04/23 06:21:40;;;;;;;0.80;0.80;;;;;;;;;;4996396;28;20505;-89
2023/04/23 06:24:07;;;;;;;1.77;1.00;;;;;;;;;;4996755;28;20053;-92
2023/04/23 06:26:35;;;;;;;1.52;1.02;;;;;;;;;;5000379;28;20049;-89
2023/04/23 06:29:02;;;;;;;0.98;0.98;;;;;;;;;;5002038;28;20060;-91
2023/04/23 06:31:29;;;;;;;1.60;0.85;;;;;;;;;;5003692;28;20058;-89
2023/04/23 06:33:56;;;;;;;1.10;1.00;;;;;;;;;;4999738;28;20042;-90
2023/04/23 06:36:23;;;;;;;0.80;0.80;;;;;;;;;;4999668;28;20064;-90
2023/04/23 06:38:51;;;;;;;2.63;0.90;;;;;;;;;;4999379;28;20119;-91
2023/04/23 06:41:18;;;;;;;0.80;0.80;;;;;;;;;;4999566;28;20050;-91
2023/04/23 06:43:47;;;;;;;1.13;1.00;;;;;;;;;;4998954;28;20050;-88
2023/04/23 06:46:14;;;;;;;1.00;1.00;;;;;;;;;;4999238;28;20057;-91
2023/04/23 06:48:41;;;;;;;0.63;0.63;;;;;;;;;;4999506;28;20487;-90
2023/04/23 06:51:08;;;;;;;1.15;1.05;;;;;;;;;;4999094;28;20481;-90
2023/04/23 06:53:36;;;;;;;1.55;1.17;;;;;;;;;;4999011;28;20050;-90
2023/04/23 06:56:03;;;;;;;0.95;0.95;;;;;;;;;;5016509;28;20050;-89
2023/04/23 06:58:31;;;;;;;0.80;0.80;;;;;;;;;;4998870;28;20046;-89
2023/04/23 07:00:59;;;;;;;1.27;1.23;;;;;;;;;;4999012;28;20054;-90
2023/04/23 07:03:30;;;;;;;2.38;2.10;;;;;;;;;;4999050;28;20076;-91
2023/04/23 07:05:57;;;;;;;1.85;0.80;;;;;;;;;;5016089;28;20050;-89
2023/04/23 07:08:25;;;;;;;1.67;1.25;;;;;;;;;;4998865;28;20046;-89
2023/04/23 07:10:52;;;;;;;0.82;0.82;;;;;;;;;;4998672;28;20054;-88
2023/04/23 07:13:19;;;;;;;1.38;1.10;;;;;;;;;;4998555;28;20046;-89
2023/04/23 07:15:47;;;;;;;1.27;0.90;;;;;;;;;;5015853;28;20076;-88
2023/04/23 07:18:15;;;;;;;0.70;0.70;;;;;;;;;;4998416;28;20105;-87
2023/04/23 07:20:42;;;;;;;1.58;1.13;;;;;;;;;;4998513;28;20141;-92
2023/04/23 07:23:09;;;;;;;0.68;0.68;;;;;;;;;;5015628;28;20057;-91
2023/04/23 07:25:37;;;;;;;0.82;0.68;;;;;;;;;;5015942;28;20053;-91
2023/04/23 07:28:05;;;;;;;0.65;0.60;;;;;;;;;;4998673;28;20120;-89
2023/04/23 07:30:32;;;;;;;1.08;0.85;;;;;;;;;;4997965;28;20053;-90
2023/04/23 07:32:59;;;;;;;1.00;0.68;;;;;;;;;;4998643;28;20045;-90
2023/04/23 07:35:27;;;;;;;1.20;0.80;;;;;;;;;;4998750;28;20084;-91
2023/04/23 07:37:56;;;;;;;1.70;1.60;;;;;;;;;;4999004;28;20058;-91
2023/04/23 07:40:24;;;;;;;2.65;2.40;;;;;;;;;;4998735;28;20056;-89
2023/04/23 07:42:51;;;;;;;3.35;1.50;;;;;;;;;;4998549;28;20060;-90
2023/04/23 07:45:19;;;;;;;6.70;0.77;;;;;;;;;;4998924;28;20052;-89
2023/04/23 07:47:47;;;;;;;1.10;1.00;;;;;;;;;;4998853;28;20554;-90
2023/04/23 07:50:15;;;;;;;1.45;1.35;;;;;;;;;;5015774;28;20058;-91
2023/04/23 07:52:42;;;;;;;1.40;1.30;;;;;;;;;;5015974;28;20057;-89
2023/04/23 07:55:09;;;;;;;1.92;1.17;;;;;;;;;;4998650;28;20050;-90
2023/04/23 07:57:37;;;;;;;1.63;1.52;;;;;;;;;;4998876;28;20138;-90
2023/04/23 08:00:08;;;;;;;2.40;1.55;;;;;;;;;;4998411;28;20356;-90
2023/04/23 08:02:35;;;;;;;2.92;2.72;;;;;;;;;;5016359;28;20392;-89
2023/04/23 08:05:02;;;;;;;3.10;3.00;;;;;;;;;;5007695;28;20132;-90
2023/04/23 08:07:30;;;;;;;2.60;2.50;;;;;;;;;;4998702;28;20046;-90
2023/04/23 08:10:01;;;;;;;0.98;0.98;;;;;;;;;;5015750;28;20054;-91
2023/04/23 08:12:29;;;;;;;1.45;1.35;;;;;;;;;;4998302;28;20050;-90
2023/04/23 08:14:57;;;;;;;0.88;0.88;;;;;;;;;;5001310;28;20061;-92
2023/04/23 08:17:24;;;;;;;0.93;0.63;;;;;;;;;;5015917;28;20046;-90
2023/04/23 08:19:52;;;;;;;0.70;0.70;;;;;;;;;;4998295;28;20046;-91
2023/04/23 08:22:19;;;;;;;0.60;0.60;;;;;;;;;;5015621;28;20068;-91
2023/04/23 08:24:48;;;;;;;2.00;0.70;;;;;;;;;;5015207;28;20337;-90
2023/04/23 08:27:15;;;;;;;0.40;0.38;;;;;;;;;;4998653;28;20049;-90
2023/04/23 08:29:42;;;;;;;0.35;0.35;;;;;;;;;;4997816;28;20060;-91
2023/04/23 08:32:10;;;;;;;1.17;0.40;;;;;;;;;;4997713;28;20058;-90
2023/04/23 08:34:37;;;;;;;0.43;0.40;;;;;;;;;;4998059;28;20056;-90
2023/04/23 08:37:05;;;;;;;0.65;0.65;;;;;;;;;;5015268;28;20571;-90
2023/04/23 08:39:37;;;;;;;0.65;0.40;;;;;;;;;;4998753;28;20459;-91
2023/04/23 08:42:10;;;;;;;0.50;0.40;;;;;;;;;;5015284;28;20077;-90
2023/04/23 08:44:41;;;;;;;1.38;0.65;;;;;;;;;;4997382;28;20057;-89
2023/04/23 08:47:11;;;;;;;0.40;0.40;;;;;;;;;;4996889;28;20137;-89
2023/04/23 08:49:41;;;;;;;0.60;0.60;;;;;;;;;;4997686;28;20152;-90
2023/04/23 08:52:15;;;;;;;0.55;0.55;;;;;;;;;;4997738;28;20049;-90
2023/04/23 08:54:45;;;;;;;1.65;0.60;;;;;;;;;;4997716;28;20085;-91
2023/04/23 08:57:13;;;;;;;0.77;0.77;;;;;;;;;;4997513;28;20050;-91
2023/04/23 08:59:41;;;;;;;0.75;0.75;;;;;;;;;;5009265;28;20060;-94
2023/04/23 09:02:40;;;;;;;1.33;1.15;;;;;;;;;;5014982;28;20048;-91
2023/04/23 09:05:07;;;;;;;3.15;0.90;;;;;;;;;;4997498;28;20049;-89
2023/04/23 09:07:35;;;;;;;1.40;1.25;;;;;;;;;;4997184;28;20054;-89
2023/04/23 09:10:06;;;;;;;0.60;0.60;;;;;;;;;;5014607;28;20079;-92
2023/04/23 09:12:37;;;;;;;1.10;1.10;;;;;;;;;;5014944;28;20136;-92
2023/04/23 09:15:09;;;;;;;1.33;1.23;;;;;;;;;;4997059;28;20509;-91
2023/04/23 09:17:44;;;;;;;0.60;0.60;;;;;;;;;;5014302;28;20050;-93
2023/04/23 09:20:11;;;;;;;0.50;0.50;;;;;;;;;;4996560;28;20069;-91
2023/04/23 09:22:39;;;;;;;1.05;0.60;;;;;;;;;;4997077;28;20049;-90
2023/04/23 09:25:08;;;;;;;0.60;0.60;;;;;;;;;;4996733;28;20054;-90
2023/04/23 09:27:38;;;;;;;2.15;0.60;;;;;;;;;;5014236;28;20042;-91
2023/04/23 09:30:08;;;;;;;1.05;0.80;;;;;;;;;;4996793;28;20057;-92
2023/04/23 09:32:36;;;;;;;1.30;0.63;;;;;;;;;;4996765;28;20517;-92
2023/04/23 09:35:07;;;;;;;1.73;0.90;;;;;;;;;;4997740;28;20049;-92
2023/04/23 09:37:35;;;;;;;2.25;1.00;;;;;;;;;;4997429;28;20129;-90
2023/04/23 09:40:03;;;;;;;1.55;0.73;;;;;;;;;;4996904;28;20056;-87
2023/04/23 09:42:32;;;;;;;2.55;1.23;;;;;;;;;;4996399;28;20089;-92
2023/04/23 09:45:01;;;;;;;2.60;1.10;;;;;;;;;;4996761;28;20053;-91
2023/04/23 09:47:31;;;;;;;0.82;0.82;;;;;;;;;;4996059;28;20054;-90
2023/04/23 09:49:59;;;;;;;0.68;0.68;;;;;;;;;;4995416;28;20552;-91
2023/04/23 09:52:27;;;;;;;0.75;0.68;;;;;;;;;;5013250;28;20112;-90
2023/04/23 09:54:58;;;;;;;0.75;0.40;;;;;;;;;;4996448;28;20046;-91
2023/04/23 09:57:25;;;;;;;1.50;0.70;;;;;;;;;;5013914;28;20046;-91
2023/04/23 09:59:56;;;;;;;0.80;0.80;;;;;;;;;;5013744;28;20053;-92
2023/04/23 10:02:40;;;;;;;1.42;0.88;;;;;;;;;;5013771;28;20046;-92
2023/04/23 10:05:18;;;;;;;0.75;0.60;;;;;;;;;;4996693;28;20053;-92
2023/04/23 10:07:50;;;;;;;0.43;0.40;;;;;;;;;;4997049;28;20046;-92
2023/04/23 10:10:18;;;;;;;0.77;0.60;;;;;;;;;;4997102;28;20077;-90
2023/04/23 10:12:46;;;;;;;0.80;0.60;;;;;;;;;;4996351;28;20494;-93
2023/04/23 10:15:22;;;;;;;0.40;0.40;;;;;;;;;;5013944;28;20057;-93
2023/04/23 10:17:50;;;;;;;0.70;0.50;;;;;;;;;;4996570;28;20053;-92
2023/04/23 10:20:20;;;;;;;9.88;1.40;;;;;;;;;;4996818;28;20133;-92
2023/04/23 10:22:47;;;;;;;2.88;0.75;;;;;;;;;;4996425;28;20057;-91
2023/04/23 10:25:14;;;;;;;3.95;0.75;;;;;;;;;;4996219;28;20052;-92
2023/04/23 10:27:42;;;;;;;0.60;0.60;;;;;;;;;;5013002;28;20104;-90
2023/04/23 10:30:20;;;;;;;0.70;0.65;;;;;;;;;;4997753;28;20096;-93
2023/04/23 10:32:48;;;;;;;0.35;0.35;;;;;;;;;;4996515;28;20100;-93
2023/04/23 10:35:16;;;;;;;1.55;0.50;;;;;;;;;;5014244;28;20053;-92
2023/04/23 10:37:45;;;;;;;0.35;0.35;;;;;;;;;;4996252;28;20434;-91
2023/04/23 10:40:13;;;;;;;7.03;1.73;;;;;;;;;;4996336;28;20077;-92
2023/04/23 10:42:42;;;;;;;1.42;0.70;;;;;;;;;;5013702;28;20049;-93
2023/04/23 10:45:13;;;;;;;0.60;0.60;;;;;;;;;;5013197;28;20416;-92
2023/04/23 10:47:50;;;;;;;4.20;1.10;;;;;;;;;;5013937;28;20108;-91
2023/04/23 10:50:21;;;;;;;0.60;0.57;;;;;;;;;;4996638;28;20050;-91
2023/04/23 10:52:53;;;;;;;0.55;0.52;;;;;;;;;;4996525;28;20050;-91
2023/04/23 10:55:22;;;;;;;1.40;0.70;;;;;;;;;;4996357;28;20049;-91
2023/04/23 10:57:59;;;;;;;3.58;1.02;;;;;;;;;;5013626;28;20053;-91
2023/04/23 11:00:29;;;;;;;1.40;0.70;;;;;;;;;;5013974;28;20482;-93
2023/04/23 11:02:56;;;;;;;0.68;0.68;;;;;;;;;;4996547;28;20145;-92
2023/04/23 11:05:24;;;;;;;2.03;0.70;;;;;;;;;;4996508;28;20045;-92
2023/04/23 11:08:04;;;;;;;1.58;0.47;;;;;;;;;;4996285;28;20050;-92
2023/04/23 11:10:56;;;;;;;1.85;0.60;;;;;;;;;;5016195;28;20145;-94
2023/04/23 11:13:24;;;;;;;0.38;0.38;;;;;;;;;;4999833;28;20046;-92
2023/04/23 11:16:10;;;;;;;0.82;0.50;;;;;;;;;;4999546;28;20049;-90
2023/04/23 11:18:56;;;;;;;0.55;0.55;;;;;;;;;;5016465;28;20053;-90
2023/04/23 11:21:43;;;;;;;1.50;0.60;;;;;;;;;;5016930;28;20056;-89
2023/04/23 11:24:11;;;;;;;0.82;0.50;;;;;;;;;;4999333;28;20045;-90
2023/04/23 11:26:39;;;;;;;2.03;0.70;;;;;;;;;;4999522;28;20493;-90
2023/04/23 11:29:07;;;;;;;0.52;0.47;;;;;;;;;;4999496;28;20077;-91
2023/04/23 11:31:34;;;;;;;0.70;0.50;;;;;;;;;;4999351;28;20121;-90
2023/04/23 11:34:02;;;;;;;1.70;0.50;;;;;;;;;;5015619;28;20046;-92
2023/04/23 11:36:30;;;;;;;1.38;0.40;;;;;;;;;;4998892;28;20042;-92
2023/04/23 11:38:57;;;;;;;0.47;0.40;;;;;;;;;;4999700;28;20050;-91
2023/04/23 11:41:24;;;;;;;1.20;0.60;;;;;;;;;;4999026;28;20072;-91
2023/04/23 11:43:51;;;;;;;3.22;0.50;;;;;;;;;;4999135;28;20045;-90
2023/04/23 11:46:18;;;;;;;0.50;0.50;;;;;;;;;;4999142;28;20501;-91
2023/04/23 11:48:48;;;;;;;0.40;0.40;;;;;;;;;;5016243;28;20077;-91
2023/04/23 11:51:15;;;;;;;1.33;0.90;;;;;;;;;;5016067;28;20042;-90
2023/04/23 11:53:48;;;;;;;0.80;0.60;;;;;;;;;;4998839;28;20052;-88
2023/04/23 11:56:16;;;;;;;0.75;0.50;;;;;;;;;;4999114;28;20084;-89
2023/04/23 11:58:43;;;;;;;1.67;0.47;;;;;;;;;;4998895;28;20485;-91
2023/04/23 12:01:12;;;;;;;0.75;0.60;;;;;;;;;;4999129;28;20046;-90
2023/04/23 12:03:39;;;;;;;3.72;0.75;;;;;;;;;;4998379;28;20068;-89
2023/04/23 12:06:06;;;;;;;0.60;0.55;;;;;;;;;;5016093;28;20133;-91
2023/04/23 12:08:34;;;;;;;0.77;0.60;;;;;;;;;;5016229;28;20052;-89
2023/04/23 12:11:04;;;;;;;2.10;0.40;;;;;;;;;;5016646;28;20451;-90
2023/04/23 12:13:32;;;;;;;1.10;0.50;;;;;;;;;;4999062;28;20498;-92
2023/04/23 12:16:01;;;;;;;1.20;0.43;;;;;;;;;;4998918;28;20046;-90
2023/04/23 12:18:29;;;;;;;0.43;0.43;;;;;;;;;;5015855;28;20050;-92
2023/04/23 12:21:04;;;;;;;1.60;0.40;;;;;;;;;;4998904;28;20056;-91
2023/04/23 12:23:35;;;;;;;1.00;0.40;;;;;;;;;;4997868;28;20513;-91
2023/04/23 12:26:02;;;;;;;0.40;0.40;;;;;;;;;;4998410;28;20042;-90
2023/04/23 12:28:30;;;;;;;0.88;0.45;;;;;;;;;;5015938;28;20388;-90
2023/04/23 12:31:01;;;;;;;0.40;0.40;;;;;;;;;;4997874;28;20056;-91
2023/04/23 12:33:29;;;;;;;3.85;0.70;;;;;;;;;;4998346;28;20469;-90
2023/04/23 12:35:57;;;;;;;0.88;0.40;;;;;;;;;;4998374;28;20050;-92
2023/04/23 12:38:28;;;;;;;0.32;0.30;;;;;;;;;;4998292;28;20320;-92
2023/04/23 12:40:56;;;;;;;1.35;0.40;;;;;;;;;;4998511;28;20114;-92
2023/04/23 12:43:24;;;;;;;0.45;0.45;;;;;;;;;;4999458;28;20050;-93
2023/04/23 12:45:51;;;;;;;0.50;0.50;;;;;;;;;;4998230;28;20046;-92
2023/04/23 12:48:18;;;;;;;3.30;0.40;;;;;;;;;;4998471;28;20089;-90
2023/04/23 12:50:47;;;;;;;2.92;0.50;;;;;;;;;;5015368;28;20062;-92
2023/04/23 12:53:14;;;;;;;0.50;0.50;;;;;;;;;;5015688;28;20129;-91
2023/04/23 12:55:43;;;;;;;1.00;0.52;;;;;;;;;;4998746;28;20053;-90
2023/04/23 12:58:10;;;;;;;0.55;0.55;;;;;;;;;;4998263;28;20053;-90
2023/04/23 13:00:38;;;;;;;0.50;0.40;;;;;;;;;;4998152;28;20049;-88
2023/04/23 13:03:05;;;;;;;0.57;0.57;;;;;;;;;;5014840;28;20060;-90
2023/04/23 13:05:32;;;;;;;0.50;0.50;;;;;;;;;;5015011;28;20084;-90
2023/04/23 13:08:00;;;;;;;0.43;0.40;;;;;;;;;;4997725;28;20054;-91
2023/04/23 13:10:29;;;;;;;0.38;0.38;;;;;;;;;;4997945;28;20052;-92
2023/04/23 13:12:56;;;;;;;2.40;0.50;;;;;;;;;;4997996;28;20145;-92
2023/04/23 13:15:24;;;;;;;0.40;0.40;;;;;;;;;;5014447;28;20136;-91
2023/04/23 13:17:54;;;;;;;0.93;0.50;;;;;;;;;;4998175;28;20482;-93
2023/04/23 13:20:24;;;;;;;1.13;0.57;;;;;;;;;;4997604;28;20157;-92
2023/04/23 13:22:51;;;;;;;0.38;0.38;;;;;;;;;;4996624;28;20057;-91
2023/04/23 13:25:18;;;;;;;0.47;0.47;;;;;;;;;;4997603;28;20050;-92
2023/04/23 13:27:45;;;;;;;3.03;0.60;;;;;;;;;;4997480;28;20072;-92
2023/04/23 13:30:12;;;;;;;7.30;0.70;;;;;;;;;;4997109;28;20060;-88
2023/04/23 13:32:40;;;;;;;0.50;0.47;;;;;;;;;;5014101;28;20050;-90
2023/04/23 13:35:07;;;;;;;1.15;0.57;;;;;;;;;;4997080;28;20060;-92
2023/04/23 13:37:35;;;;;;;0.45;0.32;;;;;;;;;;4997808;28;20046;-89
2023/04/23 13:40:02;;;;;;;0.40;0.40;;;;;;;;;;5014312;28;20133;-91
2023/04/23 13:42:29;;;;;;;0.90;0.70;;;;;;;;;;4996724;28;20058;-93
2023/04/23 13:44:56;;;;;;;1.48;0.50;;;;;;;;;;5013994;28;20056;-92
2023/04/23 13:47:25;;;;;;;0.88;0.40;;;;;;;;;;5014051;28;20050;-93
2023/04/23 13:49:52;;;;;;;1.58;0.60;;;;;;;;;;4996763;28;20141;-91
2023/04/23 13:52:19;;;;;;;0.95;0.40;;;;;;;;;;4997369;28;20128;-92
2023/04/23 13:54:47;;;;;;;0.50;0.50;;;;;;;;;;4996679;28;20046;-91
2023/04/23 13:57:15;;;;;;;0.80;0.43;;;;;;;;;;4996617;28;20053;-91
2023/04/23 13:59:42;;;;;;;0.63;0.50;;;;;;;;;;4996487;28;20062;-93
2023/04/23 14:02:10;;;;;;;0.50;0.50;;;;;;;;;;4995330;28;20048;-92
2023/04/23 14:04:38;;;;;;;0.98;0.60;;;;;;;;;;4996774;28;20080;-92
2023/04/23 14:07:05;;;;;;;1.15;0.60;;;;;;;;;;4996750;28;20050;-91
2023/04/23 14:09:33;;;;;;;0.88;0.73;;;;;;;;;;4996344;28;20470;-92
2023/04/23 14:12:00;;;;;;;0.77;0.60;;;;;;;;;;4996611;28;20050;-90
2023/04/23 14:14:28;;;;;;;0.60;0.50;;;;;;;;;;5013923;28;20064;-91
2023/04/23 14:16:55;;;;;;;0.75;0.43;;;;;;;;;;5013864;28;20061;-92
2023/04/23 14:19:22;;;;;;;1.10;0.60;;;;;;;;;;5014908;28;20306;-92
2023/04/23 14:21:50;;;;;;;0.40;0.40;;;;;;;;;;4996694;28;20394;-92
2023/04/23 14:24:18;;;;;;;0.40;0.40;;;;;;;;;;4996225;28;20058;-91
2023/04/23 14:26:47;;;;;;;0.60;0.60;;;;;;;;;;5013888;28;20056;-92
2023/04/23 14:29:19;;;;;;;0.57;0.57;;;;;;;;;;4996971;28;20054;-92
2023/04/23 14:31:46;;;;;;;0.68;0.68;;;;;;;;;;4996319;28;20052;-91
2023/04/23 14:34:13;;;;;;;0.50;0.50;;;;;;;;;;4996670;28;20052;-92
2023/04/23 14:36:40;;;;;;;0.90;0.47;;;;;;;;;;4996390;28;20056;-92
2023/04/23 14:39:08;;;;;;;1.15;0.77;;;;;;;;;;4996842;28;20141;-91
2023/04/23 14:41:36;;;;;;;1.50;0.52;;;;;;;;;;5013977;28;20081;-90
2023/04/23 14:44:03;;;;;;;0.90;0.47;;;;;;;;;;5013947;28;20137;-92
2023/04/23 14:46:30;;;;;;;0.70;0.70;;;;;;;;;;5017115;28;20413;-92
2023/04/23 14:48:57;;;;;;;0.60;0.60;;;;;;;;;;5000049;28;20120;-93
2023/04/23 14:51:26;;;;;;;2.33;0.45;;;;;;;;;;5000092;28;20065;-92